createdAt,value
2019-05-03T00:02:32.419Z,100685.75
2019-05-03T00:05:24.977Z,100686.94
2019-05-03T00:08:05.608Z,100685.34
2019-05-03T00:10:54.227Z,100680.93
2019-05-03T00:13:27.786Z,100686.09
2019-05-03T00:16:07.496Z,100685.44
2019-05-03T00:18:42.199Z,100684.51
2019-05-03T00:21:15.562Z,100690.23
2019-05-03T00:23:58.230Z,100689.67
2019-05-03T00:26:42.310Z,100687.55
2019-05-03T00:29:16.973Z,100691.07
2019-05-03T00:31:51.656Z,100686.05
2019-05-03T00:34:41.811Z,100694.02
2019-05-03T00:37:17.725Z,100696.50
2019-05-03T00:40:09.082Z,100687.98
2019-05-03T00:42:42.422Z,100691.69
2019-05-03T00:45:16.317Z,100697.66
2019-05-03T00:47:52.749Z,100691.11
2019-05-03T00:50:27.139Z,100699.02
2019-05-03T00:53:02.365Z,100695.12
2019-05-03T00:55:45.263Z,100689.76
2019-05-03T00:58:22.402Z,100690.59
2019-05-03T01:01:17.994Z,100695.02
2019-05-03T01:04:05.693Z,100698.83
2019-05-03T01:06:42.334Z,100694.52
2019-05-03T01:09:19.699Z,100694.51
2019-05-03T01:12:04.723Z,100697.08
2019-05-03T01:14:42.095Z,100700.45
2019-05-03T01:17:32.111Z,100696.06
2019-05-03T01:20:06.831Z,100698.32
2019-05-03T01:22:56.420Z,100696.56
2019-05-03T01:25:33.086Z,100700.67
2019-05-03T01:28:05.158Z,100701.06
2019-05-03T01:30:39.991Z,100705.70
2019-05-03T01:33:22.643Z,100704.48
2019-05-03T01:36:05.223Z,100699.03
2019-05-03T01:38:38.713Z,100708.45
2019-05-03T01:41:12.807Z,100709.67
2019-05-03T01:43:55.209Z,100704.66
2019-05-03T01:46:28.488Z,100704.34
2019-05-03T01:49:31.951Z,100706.17
2019-05-03T01:52:28.566Z,100706.91
2019-05-03T01:55:46.467Z,100706.59
2019-05-03T01:58:18.836Z,100711.39
2019-05-03T02:01:15.060Z,100706.27
2019-05-03T02:04:07.387Z,100704.91
2019-05-03T02:06:42.368Z,100699.52
2019-05-03T02:09:24.668Z,100702.50
2019-05-03T02:11:57.844Z,100706.91
2019-05-03T02:14:31.822Z,100710.36
2019-05-03T02:17:05.385Z,100717.23
2019-05-03T02:19:38.886Z,100712.92
2019-05-03T02:22:12.203Z,100714.03
2019-05-03T02:24:45.654Z,100714.50
2019-05-03T02:27:19.663Z,100711.14
2019-05-03T02:29:53.779Z,100707.45
2019-05-03T02:32:36.379Z,100706.44
2019-05-03T02:35:10.040Z,100710.39
2019-05-03T02:37:53.199Z,100708.98
2019-05-03T02:40:26.704Z,100710.01
2019-05-03T02:43:08.603Z,100708.36
2019-05-03T02:46:05.859Z,100711.37
2019-05-03T02:48:57.765Z,100723.78
2019-05-03T02:51:50.776Z,100731.31
2019-05-03T02:54:26.951Z,100741.63
2019-05-03T02:57:09.806Z,100730.09
2019-05-03T02:59:45.293Z,100733.36
2019-05-03T03:02:29.396Z,100741.86
2019-05-03T03:05:12.530Z,100744.92
2019-05-03T03:07:47.255Z,100748.41
2019-05-03T03:10:30.704Z,100744.81
2019-05-03T03:13:06.776Z,100756.29
2019-05-03T03:15:45.674Z,100759.53
2019-05-03T03:18:19.200Z,100751.33
2019-05-03T03:21:10.774Z,100747.33
2019-05-03T03:24:16.767Z,100745.02
2019-05-03T03:27:01.489Z,100740.34
2019-05-03T03:29:46.737Z,100744.32
2019-05-03T03:32:30.395Z,100752.26
2019-05-03T03:35:13.339Z,100748.95
2019-05-03T03:37:49.194Z,100757.96
2019-05-03T03:40:32.050Z,100756.95
2019-05-03T03:43:17.792Z,100759.37
2019-05-03T03:45:52.751Z,100766.69
2019-05-03T03:48:28.017Z,100770.20
2019-05-03T03:51:05.163Z,100770.81
2019-05-03T03:53:40.425Z,100769.56
2019-05-03T03:56:26.002Z,100769.56
2019-05-03T03:58:59.529Z,100768.95
2019-05-03T04:01:34.982Z,100770.09
2019-05-03T04:04:17.771Z,100777.91
2019-05-03T04:06:52.422Z,100783.77
2019-05-03T04:09:27.456Z,100788.01
2019-05-03T04:12:01.441Z,100789.22
2019-05-03T04:14:52.035Z,100791.39
2019-05-03T04:18:10.640Z,100800.32
2019-05-03T04:21:05.508Z,100803.11
2019-05-03T04:23:49.375Z,100802.02
2019-05-03T04:26:29.485Z,100803.43
2019-05-03T04:29:01.070Z,100805.45
2019-05-03T04:31:36.833Z,100809.45
2019-05-03T04:34:10.769Z,100814.98
2019-05-03T04:36:55.453Z,100816.80
2019-05-03T04:39:30.390Z,100822.69
2019-05-03T04:42:16.505Z,100824.91
2019-05-03T04:45:00.848Z,100831.05
2019-05-03T04:47:36.429Z,100831.33
2019-05-03T04:50:10.446Z,100835.40
2019-05-03T04:52:46.228Z,100848.13
2019-05-03T04:55:27.761Z,100850.48
2019-05-03T04:58:01.987Z,100853.61
2019-05-03T05:00:55.318Z,100857.61
2019-05-03T05:03:29.660Z,100859.50
2019-05-03T05:06:06.000Z,100855.09
2019-05-03T05:08:38.334Z,100856.14
2019-05-03T05:11:12.480Z,100864.17
2019-05-03T05:13:48.897Z,100861.95
2019-05-03T05:16:26.711Z,100869.14
2019-05-03T05:19:11.666Z,100866.16
2019-05-03T05:21:49.391Z,100870.36
2019-05-03T05:24:40.159Z,100871.05
2019-05-03T05:27:28.660Z,100863.02
2019-05-03T05:30:04.578Z,100871.58
2019-05-03T05:32:52.820Z,100881.64
2019-05-03T05:35:27.113Z,100887.61
2019-05-03T05:38:09.572Z,100896.34
2019-05-03T05:40:45.000Z,100895.00
2019-05-03T05:43:18.865Z,100893.06
2019-05-03T05:46:01.655Z,100891.41
2019-05-03T05:48:49.322Z,100889.47
2019-05-03T05:51:24.842Z,100891.27
2019-05-03T05:54:14.351Z,100881.61
2019-05-03T05:57:10.564Z,100888.63
2019-05-03T05:59:51.505Z,100883.93
2019-05-03T06:02:42.149Z,100885.17
2019-05-03T06:05:28.250Z,100891.33
2019-05-03T06:08:38.655Z,100899.41
2019-05-03T06:11:47.899Z,100890.05
2019-05-03T06:14:48.182Z,100892.94
2019-05-03T06:17:59.862Z,100894.25
2019-05-03T06:21:08.789Z,100894.06
2019-05-03T06:23:48.716Z,100898.49
2019-05-03T06:26:44.327Z,100892.73
2019-05-03T06:29:17.744Z,100896.34
2019-05-03T06:32:15.361Z,100888.95
2019-05-03T06:34:49.028Z,100888.22
2019-05-03T06:37:25.653Z,100898.00
2019-05-03T06:40:01.203Z,100892.97
2019-05-03T06:42:35.667Z,100890.19
2019-05-03T06:45:17.995Z,100884.09
2019-05-03T06:47:55.960Z,100890.78
2019-05-03T06:50:30.957Z,100888.42
2019-05-03T06:53:05.411Z,100881.31
2019-05-03T06:55:48.500Z,100885.53
2019-05-03T06:58:32.782Z,100888.61
2019-05-03T07:01:14.915Z,100893.00
2019-05-03T07:04:18.316Z,100895.87
2019-05-03T07:07:10.685Z,100899.17
2019-05-03T07:10:05.075Z,100898.66
2019-05-03T07:12:57.321Z,100898.30
2019-05-03T07:15:35.140Z,100892.71
2019-05-03T07:18:10.206Z,100898.50
2019-05-03T07:20:46.476Z,100899.19
2019-05-03T07:23:20.002Z,100898.52
2019-05-03T07:25:55.186Z,100889.11
2019-05-03T07:28:28.915Z,100895.77
2019-05-03T07:31:04.637Z,100891.79
2019-05-03T07:33:41.585Z,100883.73
2019-05-03T07:36:15.415Z,100889.50
2019-05-03T07:38:58.805Z,100885.58
2019-05-03T07:41:41.036Z,100880.77
2019-05-03T07:44:15.286Z,100885.41
2019-05-03T07:46:58.038Z,100891.58
2019-05-03T07:49:40.466Z,100894.95
2019-05-03T07:52:14.741Z,100897.38
2019-05-03T07:54:49.496Z,100905.11
2019-05-03T07:57:45.246Z,100893.70
2019-05-03T08:00:25.200Z,100897.55
2019-05-03T08:02:59.035Z,100897.64
2019-05-03T08:05:32.510Z,100899.67
2019-05-03T08:08:06.002Z,100895.45
2019-05-03T08:10:39.899Z,100890.50
2019-05-03T08:13:15.082Z,100893.16
2019-05-03T08:15:49.860Z,100891.25
2019-05-03T08:18:25.425Z,100895.02
2019-05-03T08:21:14.919Z,100898.95
2019-05-03T08:23:57.588Z,100922.13
2019-05-03T08:26:32.112Z,100936.00
2019-05-03T08:29:15.688Z,100934.12
2019-05-03T08:31:57.504Z,100922.94
2019-05-03T08:34:38.695Z,100924.26
2019-05-03T08:37:16.026Z,100927.96
2019-05-03T08:39:49.548Z,100927.87
2019-05-03T08:42:26.094Z,100930.73
2019-05-03T08:45:00.036Z,100925.13
2019-05-03T08:47:37.376Z,100919.58
2019-05-03T08:50:27.070Z,100924.52
2019-05-03T08:53:02.038Z,100917.08
2019-05-03T08:55:36.249Z,100914.77
2019-05-03T08:58:19.321Z,100911.31
2019-05-03T09:01:02.320Z,100900.36
2019-05-03T09:03:45.744Z,100896.44
2019-05-03T09:06:24.682Z,100897.45
2019-05-03T09:08:57.811Z,100889.44
2019-05-03T09:11:34.172Z,100886.80
2019-05-03T09:14:08.990Z,100891.21
2019-05-03T09:16:57.537Z,100897.82
2019-05-03T09:19:31.249Z,100897.08
2019-05-03T09:22:06.239Z,100910.20
2019-05-03T09:24:39.883Z,100923.88
2019-05-03T09:27:14.856Z,100952.50
2019-05-03T09:29:48.285Z,100942.14
2019-05-03T09:32:21.404Z,100916.16
2019-05-03T09:35:05.531Z,100917.87
2019-05-03T09:37:48.250Z,100917.64
2019-05-03T09:40:24.476Z,100915.18
2019-05-03T09:42:57.724Z,100912.03
2019-05-03T09:45:31.163Z,100913.91
2019-05-03T09:48:19.846Z,100903.99
2019-05-03T09:51:10.794Z,100904.97
2019-05-03T09:53:52.324Z,100903.00
2019-05-03T09:56:53.488Z,100900.80
2019-05-03T09:59:29.562Z,100904.98
2019-05-03T10:02:04.802Z,100909.47
2019-05-03T10:04:38.549Z,100904.34
2019-05-03T10:07:11.901Z,100903.00
2019-05-03T10:09:45.399Z,100902.13
2019-05-03T10:12:22.815Z,100905.38
2019-05-03T10:14:55.947Z,100905.09
2019-05-03T10:17:52.066Z,100911.50
2019-05-03T10:20:27.135Z,100899.83
2019-05-03T10:23:07.640Z,100903.99
2019-05-03T10:25:41.193Z,100894.31
2019-05-03T10:28:15.350Z,100892.73
2019-05-03T10:30:58.214Z,100884.55
2019-05-03T10:33:53.853Z,100889.62
2019-05-03T10:36:27.774Z,100894.39
2019-05-03T10:39:10.511Z,100882.84
2019-05-03T10:41:45.736Z,100884.05
2019-05-03T10:44:19.349Z,100882.45
2019-05-03T10:46:53.022Z,100888.16
2019-05-03T10:49:27.485Z,100888.56
2019-05-03T10:52:05.665Z,100879.66
2019-05-03T10:55:00.190Z,100884.89
2019-05-03T10:57:36.618Z,100872.64
2019-05-03T11:00:39.306Z,100872.50
2019-05-03T11:02:51.919Z,100872.48
2019-05-03T11:05:26.023Z,100869.69
2019-05-03T11:08:09.145Z,100863.38
2019-05-03T11:10:51.858Z,100868.15
2019-05-03T11:13:34.957Z,100851.03
2019-05-03T11:16:08.965Z,100853.75
2019-05-03T11:18:42.916Z,100864.20
2019-05-03T11:21:27.923Z,100862.55
2019-05-03T11:23:52.060Z,100867.20
2019-05-03T11:26:26.062Z,100869.00
2019-05-03T11:29:15.871Z,100867.67
2019-05-03T11:32:15.113Z,100862.10
2019-05-03T11:35:21.899Z,100870.69
2019-05-03T11:38:25.395Z,100873.15
2019-05-03T11:40:59.403Z,100874.40
2019-05-03T11:43:34.874Z,100878.34
2019-05-03T11:46:08.469Z,100878.94
2019-05-03T11:48:41.632Z,100881.92
2019-05-03T11:51:15.354Z,100881.70
2019-05-03T11:53:49.449Z,100889.05
2019-05-03T11:56:32.702Z,100873.28
2019-05-03T11:59:15.388Z,100872.14
2019-05-03T12:02:00.120Z,100871.34
2019-05-03T12:04:35.395Z,100875.60
2019-05-03T12:07:38.982Z,100864.67
2019-05-03T12:10:31.073Z,100864.52
2019-05-03T12:12:56.621Z,100860.78
2019-05-03T12:15:30.549Z,100866.39
2019-05-03T12:18:07.728Z,100870.22
2019-05-03T12:20:42.093Z,100863.20
2019-05-03T12:23:17.026Z,100867.70
2019-05-03T12:26:06.517Z,100865.39
2019-05-03T12:28:48.384Z,100867.23
2019-05-03T12:31:38.001Z,100863.20
2019-05-03T12:34:06.439Z,100858.38
2019-05-03T12:36:56.111Z,100860.08
2019-05-03T12:39:30.563Z,100862.60
2019-05-03T12:42:05.832Z,100856.84
2019-05-03T12:44:39.987Z,100849.48
2019-05-03T12:47:14.662Z,100851.27
2019-05-03T12:50:00.182Z,100842.22
2019-05-03T12:52:35.445Z,100835.16
2019-05-03T12:55:09.584Z,100839.92
2019-05-03T12:57:55.284Z,100842.66
2019-05-03T13:00:50.340Z,100825.46
2019-05-03T13:03:55.826Z,100818.94
2019-05-03T13:06:31.308Z,100819.38
2019-05-03T13:09:25.216Z,100794.84
2019-05-03T13:11:59.310Z,100799.23
2019-05-03T13:14:34.564Z,100804.87
2019-05-03T13:17:11.092Z,100805.64
2019-05-03T13:19:45.192Z,100798.95
2019-05-03T13:22:18.566Z,100796.34
2019-05-03T13:24:52.032Z,100799.17
2019-05-03T13:27:25.604Z,100796.35
2019-05-03T13:29:59.511Z,100789.80
2019-05-03T13:32:34.839Z,100792.77
2019-05-03T13:35:08.295Z,100797.98
2019-05-03T13:37:41.846Z,100806.47
2019-05-03T13:40:16.277Z,100799.11
2019-05-03T13:43:03.628Z,100796.02
2019-05-03T13:45:35.569Z,100800.59
2019-05-03T13:48:10.821Z,100793.78
2019-05-03T13:50:55.155Z,100791.03
2019-05-03T13:53:30.239Z,100797.66
2019-05-03T13:56:04.738Z,100794.59
2019-05-03T13:58:51.056Z,100792.68
2019-05-03T14:01:25.237Z,100780.91
2019-05-03T14:04:08.453Z,100775.07
2019-05-03T14:06:50.469Z,100780.43
2019-05-03T14:09:25.152Z,100771.54
2019-05-03T14:11:58.817Z,100771.16
2019-05-03T14:14:51.935Z,100769.52
2019-05-03T14:17:28.423Z,100775.61
2019-05-03T14:20:26.074Z,100782.64
2019-05-03T14:23:18.748Z,100788.67
2019-05-03T14:25:55.103Z,100781.61
2019-05-03T14:28:28.300Z,100774.86
2019-05-03T14:31:01.788Z,100777.28
2019-05-03T14:33:37.334Z,100766.33
2019-05-03T14:36:10.871Z,100768.67
2019-05-03T14:38:46.909Z,100764.83
2019-05-03T14:41:20.405Z,100751.98
2019-05-03T14:43:55.643Z,100744.20
2019-05-03T14:46:33.155Z,100747.02
2019-05-03T14:49:05.634Z,100742.72
2019-05-03T14:51:39.336Z,100753.69
2019-05-03T14:54:14.494Z,100746.70
2019-05-03T14:56:55.294Z,100749.75
2019-05-03T15:00:16.793Z,100747.72
2019-05-03T15:03:09.777Z,100748.05
2019-05-03T15:05:43.338Z,100745.61
2019-05-03T15:08:47.401Z,100750.95
2019-05-03T15:11:20.848Z,100756.38
2019-05-03T15:13:55.082Z,100770.39
2019-05-03T15:16:37.483Z,100761.85
2019-05-03T15:19:10.790Z,100751.34
2019-05-03T15:21:45.279Z,100750.55
2019-05-03T15:24:19.192Z,100743.28
2019-05-03T15:26:52.828Z,100735.23
2019-05-03T15:29:26.549Z,100731.10
2019-05-03T15:32:01.918Z,100743.62
2019-05-03T15:34:36.857Z,100736.02
2019-05-03T15:37:10.369Z,100725.98
2019-05-03T15:39:45.209Z,100727.02
2019-05-03T15:42:20.661Z,100723.47
2019-05-03T15:45:28.409Z,100724.47
2019-05-03T15:48:08.840Z,100724.05
2019-05-03T15:50:56.031Z,100726.05
2019-05-03T15:53:29.654Z,100720.11
2019-05-03T15:56:08.413Z,100716.56
2019-05-03T15:58:44.967Z,100710.65
2019-05-03T16:01:17.542Z,100715.48
2019-05-03T16:04:00.148Z,100713.62
2019-05-03T16:06:44.863Z,100715.28
2019-05-03T16:09:27.743Z,100718.05
2019-05-03T16:12:10.469Z,100711.19
2019-05-03T16:14:44.516Z,100717.25
2019-05-03T16:17:28.286Z,100714.86
2019-05-03T16:20:02.515Z,100715.39
2019-05-03T16:22:45.024Z,100717.33
2019-05-03T16:25:18.791Z,100714.79
2019-05-03T16:27:58.184Z,100710.31
2019-05-03T16:31:01.252Z,100706.89
2019-05-03T16:33:38.722Z,100709.78
2019-05-03T16:36:21.173Z,100703.53
2019-05-03T16:38:55.361Z,100704.20
2019-05-03T16:41:29.195Z,100699.99
2019-05-03T16:44:02.767Z,100700.47
2019-05-03T16:46:38.713Z,100697.31
2019-05-03T16:49:15.612Z,100688.67
2019-05-03T16:51:49.310Z,100695.70
2019-05-03T16:54:35.323Z,100689.04
2019-05-03T16:57:09.341Z,100690.14
2019-05-03T16:59:44.364Z,100683.98
2019-05-03T17:02:28.208Z,100684.82
2019-05-03T17:05:16.005Z,100682.59
2019-05-03T17:07:56.193Z,100680.62
2019-05-03T17:10:38.815Z,100677.80
2019-05-03T17:13:34.560Z,100682.47
2019-05-03T17:16:22.015Z,100688.08
2019-05-03T17:19:06.724Z,100689.05
2019-05-03T17:21:54.865Z,100689.17
2019-05-03T17:24:32.840Z,100694.31
2019-05-03T17:27:16.512Z,100692.24
2019-05-03T17:30:01.587Z,100685.69
2019-05-03T17:32:35.892Z,100681.92
2019-05-03T17:35:09.245Z,100686.56
2019-05-03T17:37:51.328Z,100682.40
2019-05-03T17:40:44.224Z,100684.98
2019-05-03T17:43:39.518Z,100685.10
2019-05-03T17:46:15.018Z,100690.17
2019-05-03T17:48:58.228Z,100684.73
2019-05-03T17:51:58.686Z,100694.07
2019-05-03T17:54:54.327Z,100688.94
2019-05-03T17:58:00.522Z,100693.41
2019-05-03T18:01:00.609Z,100698.05
2019-05-03T18:03:38.304Z,100687.59
2019-05-03T18:06:31.519Z,100693.34
2019-05-03T18:09:25.560Z,100688.73
2019-05-03T18:12:00.564Z,100685.38
2019-05-03T18:14:44.918Z,100684.17
2019-05-03T18:17:27.330Z,100680.91
2019-05-03T18:20:00.627Z,100687.45
2019-05-03T18:22:34.732Z,100688.44
2019-05-03T18:25:25.724Z,100690.51
2019-05-03T18:27:59.931Z,100690.12
2019-05-03T18:30:45.484Z,100686.41
2019-05-03T18:33:19.444Z,100685.59
2019-05-03T18:35:55.000Z,100684.01
2019-05-03T18:38:39.277Z,100693.47
2019-05-03T18:41:14.534Z,100689.59
2019-05-03T18:44:14.754Z,100683.78
2019-05-03T18:46:55.870Z,100690.48
2019-05-03T18:49:44.734Z,100697.34
2019-05-03T18:52:27.080Z,100697.34
2019-05-03T18:55:01.648Z,100699.13
2019-05-03T18:57:49.587Z,100712.02
2019-05-03T19:00:24.677Z,100702.48
2019-05-03T19:02:57.859Z,100704.34
2019-05-03T19:05:34.962Z,100697.87
2019-05-03T19:08:35.130Z,100702.27
2019-05-03T19:11:35.324Z,100694.93
2019-05-03T19:14:26.829Z,100698.27
2019-05-03T19:17:19.563Z,100704.27
2019-05-03T19:19:55.163Z,100701.40
2019-05-03T19:22:29.039Z,100696.11
2019-05-03T19:25:04.677Z,100703.69
2019-05-03T19:27:47.318Z,100694.77
2019-05-03T19:30:31.546Z,100688.84
2019-05-03T19:33:07.322Z,100697.11
2019-05-03T19:35:44.506Z,100691.56
2019-05-03T19:38:18.511Z,100695.94
2019-05-03T19:40:54.782Z,100700.53
2019-05-03T19:43:29.300Z,100705.58
2019-05-03T19:46:12.032Z,100704.95
2019-05-03T19:48:46.629Z,100703.03
2019-05-03T19:51:21.164Z,100703.93
2019-05-03T19:54:05.265Z,100698.58
2019-05-03T19:56:38.270Z,100704.86
2019-05-03T19:59:14.895Z,100699.51
2019-05-03T20:02:00.917Z,100693.98
2019-05-03T20:05:14.971Z,100686.39
2019-05-03T20:08:11.266Z,100683.79
2019-05-03T20:10:46.137Z,100693.40
2019-05-03T20:13:31.892Z,100697.63
2019-05-03T20:15:56.213Z,100695.17
2019-05-03T20:18:30.891Z,100687.77
2019-05-03T20:21:15.019Z,100688.39
2019-05-03T20:23:49.961Z,100690.97
2019-05-03T20:26:34.958Z,100685.72
2019-05-03T20:29:18.041Z,100682.58
2019-05-03T20:32:02.322Z,100682.80
2019-05-03T20:34:46.644Z,100680.99
2019-05-03T20:37:29.566Z,100676.89
2019-05-03T20:40:15.316Z,100665.91
2019-05-03T20:43:10.848Z,100672.22
2019-05-03T20:46:06.127Z,100670.26
2019-05-03T20:48:58.907Z,100668.40
2019-05-03T20:51:36.064Z,100665.72
2019-05-03T20:54:09.705Z,100666.25
2019-05-03T20:56:45.608Z,100660.19
2019-05-03T20:59:27.884Z,100658.14
2019-05-03T21:02:01.885Z,100663.53
2019-05-03T21:04:44.714Z,100659.30
2019-05-03T21:07:20.736Z,100664.23
2019-05-03T21:09:54.846Z,100664.22
2019-05-03T21:12:31.213Z,100670.90
2019-05-03T21:15:26.357Z,100667.27
2019-05-03T21:18:31.187Z,100668.89
2019-05-03T21:21:31.564Z,100667.92
2019-05-03T21:24:36.923Z,100669.37
2019-05-03T21:27:11.135Z,100668.48
2019-05-03T21:29:55.206Z,100667.56
2019-05-03T21:32:30.288Z,100671.23
2019-05-03T21:35:14.679Z,100668.05
2019-05-03T21:37:58.626Z,100670.03
2019-05-03T21:40:34.737Z,100673.10
2019-05-03T21:43:16.488Z,100676.31
2019-05-03T21:45:55.440Z,100673.45
2019-05-03T21:48:55.380Z,100674.78
2019-05-03T21:51:29.678Z,100670.89
2019-05-03T21:54:06.756Z,100668.61
2019-05-03T21:56:44.708Z,100663.80
2019-05-03T21:59:35.293Z,100666.56
2019-05-03T22:02:08.349Z,100671.39
2019-05-03T22:04:44.413Z,100661.42
2019-05-03T22:07:28.478Z,100663.70
2019-05-03T22:10:12.408Z,100664.49
2019-05-03T22:12:45.850Z,100665.76
2019-05-03T22:15:34.779Z,100664.72
2019-05-03T22:18:35.432Z,100662.27
2019-05-03T22:21:34.677Z,100669.64
2019-05-03T22:24:36.513Z,100671.73
2019-05-03T22:27:24.637Z,100667.50
2019-05-03T22:29:57.955Z,100658.06
2019-05-03T22:32:31.718Z,100662.17
2019-05-03T22:35:06.689Z,100659.70
2019-05-03T22:37:49.999Z,100658.77
2019-05-03T22:40:25.047Z,100656.00
2019-05-03T22:42:58.459Z,100653.33
2019-05-03T22:45:31.596Z,100650.11
2019-05-03T22:48:14.616Z,100644.36
2019-05-03T22:50:48.506Z,100651.34
2019-05-03T22:53:22.104Z,100656.78
2019-05-03T22:55:55.655Z,100652.36
2019-05-03T22:58:29.682Z,100648.99
2019-05-03T23:01:04.914Z,100649.31
2019-05-03T23:03:44.840Z,100647.13
2019-05-03T23:06:29.387Z,100634.42
2019-05-03T23:09:04.938Z,100634.81
2019-05-03T23:11:38.320Z,100638.00
2019-05-03T23:14:14.854Z,100621.25
2019-05-03T23:16:48.034Z,100631.61
2019-05-03T23:19:21.895Z,100629.27
2019-05-03T23:22:15.203Z,100618.80
2019-05-03T23:24:48.919Z,100625.15
2019-05-03T23:27:22.060Z,100618.58
2019-05-03T23:29:55.287Z,100613.84
2019-05-03T23:32:29.140Z,100613.25
2019-05-03T23:35:05.013Z,100613.34
2019-05-03T23:37:47.677Z,100604.23
2019-05-03T23:40:21.158Z,100607.39
2019-05-03T23:42:54.691Z,100603.48
2019-05-03T23:45:27.866Z,100599.27
2019-05-03T23:48:01.362Z,100597.23
2019-05-03T23:50:36.250Z,100598.36
2019-05-03T23:53:18.280Z,100596.41
2019-05-03T23:55:55.600Z,100586.95
2019-05-03T23:58:46.679Z,100589.13
